Time;durP1;ratioP1;P1;durP2;ratioP2;P2;SDS_P1;SDS_P2;PMS_P1;PMS_P2;Temp;Humidity;BMP_temperature;BMP_pressure;BME280_temperature;BME280_humidity;BME280_pressure;Samples;Min_cycle;Max_cycle;Signal;HPM_P1;HPM_P2
2022/05/08 00:00:59;;;;;;;7.80;4.53;;;;;;;;;;4137527;34;20114;-67
2022/05/08 00:33:59;;;;;;;9.93;4.35;;;;;;;;;;4132599;34;20212;-66
2022/05/08 00:36:25;;;;;;;7.15;3.87;;;;;;;;;;4136388;34;20204;-69
2022/05/08 00:38:51;;;;;;;10.80;4.50;;;;;;;;;;4136164;34;20876;-69
2022/05/08 00:41:17;;;;;;;6.00;4.32;;;;;;;;;;4136322;34;20104;-66
2022/05/08 00:43:43;;;;;;;150.48;106.97;;;;;;;;;;4136027;34;20122;-65
2022/05/08 00:46:13;;;;;;;19.90;14.40;;;;;;;;;;4136392;34;20132;-66
2022/05/08 00:48:39;;;;;;;8.25;4.15;;;;;;;;;;4135476;34;20216;-66
2022/05/08 00:51:07;;;;;;;8.10;5.22;;;;;;;;;;4136160;34;20126;-67
2022/05/08 00:53:36;;;;;;;6.90;4.80;;;;;;;;;;4136191;34;20545;-66
2022/05/08 00:56:05;;;;;;;10.13;4.47;;;;;;;;;;4134915;34;20101;-67
2022/05/08 00:58:31;;;;;;;10.60;4.00;;;;;;;;;;4135850;34;20202;-67
2022/05/08 01:00:58;;;;;;;8.80;4.60;;;;;;;;;;4136212;34;20127;-68
2022/05/08 01:03:24;;;;;;;7.68;4.70;;;;;;;;;;4136061;34;20126;-69
2022/05/08 01:05:54;;;;;;;8.73;5.00;;;;;;;;;;4136122;34;20142;-67
2022/05/08 01:08:22;;;;;;;8.98;5.35;;;;;;;;;;4135737;34;20164;-69
2022/05/08 01:10:48;;;;;;;7.10;4.47;;;;;;;;;;4136049;34;20117;-66
2022/05/08 01:13:15;;;;;;;7.72;4.37;;;;;;;;;;4135713;34;20128;-66
2022/05/08 01:15:42;;;;;;;5.05;3.72;;;;;;;;;;4136238;34;20119;-66
2022/05/08 01:18:09;;;;;;;6.45;3.80;;;;;;;;;;4135786;34;20556;-67
2022/05/08 01:20:35;;;;;;;7.65;3.70;;;;;;;;;;4135951;34;20130;-67
2022/05/08 01:23:05;;;;;;;5.20;3.90;;;;;;;;;;4135894;34;20126;-67
2022/05/08 01:25:33;;;;;;;5.47;4.00;;;;;;;;;;4135869;34;20127;-67
2022/05/08 01:27:59;;;;;;;7.40;4.70;;;;;;;;;;4135676;34;20111;-67
2022/05/08 01:30:25;;;;;;;10.27;4.35;;;;;;;;;;4134371;34;20116;-66
2022/05/08 01:32:52;;;;;;;6.80;4.32;;;;;;;;;;4135518;34;20134;-66
2022/05/08 01:35:19;;;;;;;8.32;3.95;;;;;;;;;;4134447;34;20127;-67
2022/05/08 01:37:45;;;;;;;7.03;3.67;;;;;;;;;;4134566;34;20092;-67
2022/05/08 01:40:12;;;;;;;10.15;3.58;;;;;;;;;;4136509;34;20305;-67
2022/05/08 01:42:38;;;;;;;6.35;3.50;;;;;;;;;;4137689;34;20602;-67
2022/05/08 01:45:04;;;;;;;6.20;3.45;;;;;;;;;;4137763;34;20119;-66
2022/05/08 01:50:14;;;;;;;5.32;3.60;;;;;;;;;;4137888;34;20124;-69
2022/05/08 01:52:40;;;;;;;5.72;3.70;;;;;;;;;;4136439;34;20114;-69
2022/05/08 01:55:07;;;;;;;8.77;4.93;;;;;;;;;;4137656;34;20129;-68
2022/05/08 01:57:32;;;;;;;9.57;4.47;;;;;;;;;;4137750;34;20115;-68
2022/05/08 01:59:58;;;;;;;8.35;4.65;;;;;;;;;;4137498;34;20135;-68
2022/05/08 02:02:24;;;;;;;11.88;5.10;;;;;;;;;;4137518;34;20191;-68
2022/05/08 02:04:50;;;;;;;10.65;4.45;;;;;;;;;;4137476;34;20220;-68
2022/05/08 02:07:16;;;;;;;15.43;4.35;;;;;;;;;;4136017;34;20103;-68
2022/05/08 02:09:44;;;;;;;6.18;4.10;;;;;;;;;;4137405;34;20208;-67
2022/05/08 02:12:10;;;;;;;5.30;4.05;;;;;;;;;;4137524;34;20228;-67
2022/05/08 02:14:36;;;;;;;9.23;4.50;;;;;;;;;;4137327;34;20538;-67
2022/05/08 02:17:04;;;;;;;7.78;4.20;;;;;;;;;;4137490;34;20139;-67
2022/05/08 02:19:30;;;;;;;6.03;4.10;;;;;;;;;;4137424;34;20241;-66
2022/05/08 02:21:56;;;;;;;7.45;4.10;;;;;;;;;;4137378;34;20108;-67
2022/05/08 02:24:22;;;;;;;9.52;4.25;;;;;;;;;;4137590;34;20167;-67
2022/05/08 02:26:48;;;;;;;6.93;3.72;;;;;;;;;;4137396;34;20207;-67
2022/05/08 02:29:14;;;;;;;11.18;5.10;;;;;;;;;;4137305;34;20112;-67
2022/05/08 02:31:40;;;;;;;9.32;5.07;;;;;;;;;;4137176;34;20115;-67
2022/05/08 02:34:06;;;;;;;10.30;4.78;;;;;;;;;;4137419;34;20540;-67
2022/05/08 02:36:32;;;;;;;6.15;3.92;;;;;;;;;;4137086;34;20170;-67
2022/05/08 02:38:58;;;;;;;13.70;4.40;;;;;;;;;;4137119;34;20119;-67
2022/05/08 02:41:24;;;;;;;9.57;3.75;;;;;;;;;;4137260;34;20111;-67
2022/05/08 02:43:50;;;;;;;8.43;3.20;;;;;;;;;;4137118;34;20118;-67
2022/05/08 02:46:16;;;;;;;7.53;3.40;;;;;;;;;;4137269;34;20100;-67
2022/05/08 02:48:42;;;;;;;7.10;3.70;;;;;;;;;;4137121;34;20578;-67
2022/05/08 02:51:08;;;;;;;6.28;3.20;;;;;;;;;;4136642;34;20112;-67
2022/05/08 02:53:34;;;;;;;6.70;3.47;;;;;;;;;;4137019;34;20131;-67
2022/05/08 02:58:45;;;;;;;9.10;3.65;;;;;;;;;;4137046;34;20122;-68
2022/05/08 03:01:11;;;;;;;9.98;3.00;;;;;;;;;;4137153;34;20200;-68
2022/05/08 03:03:37;;;;;;;5.65;3.10;;;;;;;;;;4137049;34;20126;-69
2022/05/08 03:06:05;;;;;;;6.10;2.80;;;;;;;;;;4137149;34;20534;-68
2022/05/08 03:08:31;;;;;;;6.82;3.08;;;;;;;;;;4136955;34;20103;-69
2022/05/08 03:13:42;;;;;;;9.38;4.05;;;;;;;;;;4137006;34;20520;-70
2022/05/08 03:16:10;;;;;;;10.73;4.62;;;;;;;;;;4137324;34;20115;-70
2022/05/08 03:18:38;;;;;;;12.82;4.25;;;;;;;;;;4124512;34;20115;-70
2022/05/08 03:21:05;;;;;;;13.70;5.53;;;;;;;;;;4137012;34;20138;-70
2022/05/08 03:23:33;;;;;;;10.10;4.60;;;;;;;;;;4135675;34;20202;-69
2022/05/08 03:25:59;;;;;;;13.90;5.07;;;;;;;;;;4136951;34;20112;-69
2022/05/08 03:28:25;;;;;;;18.52;5.43;;;;;;;;;;4135625;34;20127;-69
2022/05/08 03:30:51;;;;;;;13.20;5.35;;;;;;;;;;4135445;34;20195;-70
2022/05/08 03:33:18;;;;;;;13.68;5.00;;;;;;;;;;4136914;34;20120;-68
2022/05/08 03:35:44;;;;;;;10.43;4.70;;;;;;;;;;4136809;34;20127;-69
2022/05/08 03:38:10;;;;;;;12.52;5.65;;;;;;;;;;4136840;34;20141;-65
2022/05/08 03:40:36;;;;;;;16.23;5.05;;;;;;;;;;4135422;34;20127;-67
2022/05/08 03:43:03;;;;;;;11.63;4.37;;;;;;;;;;4137082;34;20119;-68
2022/05/08 03:45:29;;;;;;;10.65;5.18;;;;;;;;;;4136709;34;20505;-67
2022/05/08 03:47:56;;;;;;;9.98;4.45;;;;;;;;;;4136667;34;20122;-68
2022/05/08 03:50:22;;;;;;;8.70;4.70;;;;;;;;;;4136673;34;20135;-67
2022/05/08 03:52:48;;;;;;;11.38;4.40;;;;;;;;;;4136604;34;20127;-68
2022/05/08 03:55:15;;;;;;;10.15;4.32;;;;;;;;;;4136622;34;20539;-68
2022/05/08 03:57:42;;;;;;;8.88;3.25;;;;;;;;;;4136595;34;20163;-67
2022/05/08 04:00:09;;;;;;;8.75;3.42;;;;;;;;;;4135264;34;20196;-68
2022/05/08 04:02:35;;;;;;;5.62;2.87;;;;;;;;;;4136341;34;20709;-68
2022/05/08 04:05:02;;;;;;;5.45;2.85;;;;;;;;;;4124142;34;20535;-68
2022/05/08 04:07:29;;;;;;;6.12;3.33;;;;;;;;;;4136431;34;20123;-68
2022/05/08 04:09:55;;;;;;;10.07;3.30;;;;;;;;;;4123988;34;20122;-68
2022/05/08 04:12:21;;;;;;;5.50;3.20;;;;;;;;;;4136393;34;20216;-69
2022/05/08 04:14:47;;;;;;;8.38;3.35;;;;;;;;;;4136378;34;20465;-66
2022/05/08 04:17:13;;;;;;;9.32;3.10;;;;;;;;;;4136586;34;20531;-66
2022/05/08 04:19:39;;;;;;;8.70;3.08;;;;;;;;;;4136390;34;20207;-67
2022/05/08 04:24:51;;;;;;;6.20;2.80;;;;;;;;;;4136392;34;20182;-66
2022/05/08 04:27:17;;;;;;;4.57;2.80;;;;;;;;;;4136376;34;20122;-65
2022/05/08 04:29:43;;;;;;;4.30;2.47;;;;;;;;;;4135953;34;20123;-66
2022/05/08 04:32:09;;;;;;;10.75;3.33;;;;;;;;;;4135685;34;20135;-65
2022/05/08 04:34:36;;;;;;;5.47;3.17;;;;;;;;;;4136248;34;20636;-65
2022/05/08 04:37:03;;;;;;;9.52;3.95;;;;;;;;;;4136419;34;20167;-65
2022/05/08 04:39:29;;;;;;;10.40;3.45;;;;;;;;;;4136207;34;20163;-69
2022/05/08 04:41:55;;;;;;;9.82;3.70;;;;;;;;;;4136209;34;20528;-67
2022/05/08 04:44:22;;;;;;;7.00;4.10;;;;;;;;;;4136379;34;20095;-65
2022/05/08 04:46:48;;;;;;;11.75;4.57;;;;;;;;;;4136153;34;20156;-65
2022/05/08 04:49:14;;;;;;;12.50;4.32;;;;;;;;;;4136270;34;20641;-63
2022/05/08 04:51:40;;;;;;;9.52;4.43;;;;;;;;;;4135915;34;20207;-68
2022/05/08 04:54:06;;;;;;;9.45;4.40;;;;;;;;;;4136242;34;20185;-68
2022/05/08 04:56:32;;;;;;;9.80;4.93;;;;;;;;;;4135982;34;20126;-66
2022/05/08 04:58:58;;;;;;;16.92;3.85;;;;;;;;;;4135932;34;20182;-65
2022/05/08 05:01:24;;;;;;;10.15;3.47;;;;;;;;;;4135919;34;20223;-66
2022/05/08 05:03:51;;;;;;;6.32;3.12;;;;;;;;;;4136188;34;20175;-67
2022/05/08 05:06:17;;;;;;;5.85;2.87;;;;;;;;;;4136102;34;20115;-67
2022/05/08 05:08:43;;;;;;;4.80;2.97;;;;;;;;;;4135884;34;20098;-67
2022/05/08 05:11:10;;;;;;;2.60;1.90;;;;;;;;;;4136035;34;20137;-67
2022/05/08 05:13:39;;;;;;;2.25;1.83;;;;;;;;;;4134339;34;20484;-67
2022/05/08 05:16:05;;;;;;;5.00;1.75;;;;;;;;;;4137538;34;20099;-67
2022/05/08 05:18:32;;;;;;;3.45;2.03;;;;;;;;;;4137953;34;20119;-68
2022/05/08 05:20:58;;;;;;;3.92;2.35;;;;;;;;;;4137867;34;20468;-67
2022/05/08 05:23:24;;;;;;;4.50;2.10;;;;;;;;;;4137661;34;20123;-67
2022/05/08 05:25:50;;;;;;;5.95;2.00;;;;;;;;;;4137999;34;20511;-67
2022/05/08 05:28:17;;;;;;;6.90;2.47;;;;;;;;;;4137905;34;20577;-67
2022/05/08 05:30:43;;;;;;;5.20;2.20;;;;;;;;;;4125407;34;20528;-69
2022/05/08 05:33:15;;;;;;;2.47;1.70;;;;;;;;;;4137813;34;20131;-68
2022/05/08 05:35:42;;;;;;;3.25;2.15;;;;;;;;;;4125880;34;20130;-70
2022/05/08 05:38:08;;;;;;;3.08;1.65;;;;;;;;;;4137683;34;20118;-68
2022/05/08 05:40:34;;;;;;;8.95;1.95;;;;;;;;;;4136470;34;20507;-68
2022/05/08 05:43:00;;;;;;;4.35;1.77;;;;;;;;;;4137771;34;20126;-68
2022/05/08 05:45:27;;;;;;;5.62;1.95;;;;;;;;;;4137712;34;20115;-68
2022/05/08 05:47:53;;;;;;;5.15;2.90;;;;;;;;;;4137683;34;20118;-68
2022/05/08 05:50:23;;;;;;;4.10;1.92;;;;;;;;;;4137965;34;20107;-67
2022/05/08 05:52:50;;;;;;;2.83;2.30;;;;;;;;;;4125268;34;20119;-67
2022/05/08 05:55:16;;;;;;;2.67;1.87;;;;;;;;;;4137906;34;20444;-68
2022/05/08 05:57:44;;;;;;;2.33;1.80;;;;;;;;;;4124794;34;20198;-68
2022/05/08 06:00:15;;;;;;;5.05;2.20;;;;;;;;;;4123156;34;20154;-68
2022/05/08 06:02:43;;;;;;;3.97;2.05;;;;;;;;;;4135330;34;20233;-69
2022/05/08 06:05:11;;;;;;;4.50;1.67;;;;;;;;;;4135335;34;20117;-75
2022/05/08 06:07:38;;;;;;;4.00;2.55;;;;;;;;;;4135519;34;20129;-69
2022/05/08 06:10:08;;;;;;;2.47;1.87;;;;;;;;;;4135518;34;20123;-67
2022/05/08 06:12:34;;;;;;;2.20;2.00;;;;;;;;;;4135421;34;20130;-68
2022/05/08 06:15:01;;;;;;;6.25;3.00;;;;;;;;;;4134928;34;20629;-67
2022/05/08 06:17:27;;;;;;;6.82;2.12;;;;;;;;;;4137760;34;20122;-66
2022/05/08 06:19:53;;;;;;;3.58;2.30;;;;;;;;;;4125077;34;20095;-67
2022/05/08 06:22:19;;;;;;;2.37;1.70;;;;;;;;;;4137408;34;20107;-69
2022/05/08 06:24:45;;;;;;;6.07;2.50;;;;;;;;;;4137591;34;20130;-71
2022/05/08 06:27:11;;;;;;;3.67;2.40;;;;;;;;;;4124253;34;20111;-70
2022/05/08 06:29:37;;;;;;;2.00;1.62;;;;;;;;;;4137330;34;20143;-68
2022/05/08 06:32:04;;;;;;;3.85;2.85;;;;;;;;;;4137124;34;20121;-70
2022/05/08 06:34:30;;;;;;;5.78;2.05;;;;;;;;;;4137247;34;20121;-67
2022/05/08 06:36:56;;;;;;;2.45;1.70;;;;;;;;;;4137196;34;20123;-69
2022/05/08 06:39:22;;;;;;;1.35;1.10;;;;;;;;;;4137150;34;20488;-71
2022/05/08 06:41:48;;;;;;;3.78;1.67;;;;;;;;;;4137247;34;20473;-70
2022/05/08 06:44:14;;;;;;;2.22;1.27;;;;;;;;;;4135876;34;20119;-67
2022/05/08 06:46:40;;;;;;;3.25;2.40;;;;;;;;;;4135215;34;20134;-68
2022/05/08 06:49:07;;;;;;;3.33;1.90;;;;;;;;;;4136652;34;20608;-68
2022/05/08 06:51:36;;;;;;;2.30;1.83;;;;;;;;;;4136793;34;20158;-67
2022/05/08 06:54:03;;;;;;;2.25;1.77;;;;;;;;;;4136802;34;20111;-65
2022/05/08 06:56:34;;;;;;;2.20;1.85;;;;;;;;;;4136811;34;20537;-69
2022/05/08 07:01:46;;;;;;;;;;;;;;;;;;4137308;34;20206;-67
2022/05/08 07:04:12;;;;;;;6.65;4.20;;;;;;;;;;4136636;34;20074;-67
2022/05/08 07:06:39;;;;;;;2.83;1.80;;;;;;;;;;4136420;34;20520;-67
2022/05/08 07:09:06;;;;;;;2.03;1.60;;;;;;;;;;4137088;34;20134;-66
2022/05/08 07:11:33;;;;;;;1.10;1.10;;;;;;;;;;4136725;34;20456;-67
2022/05/08 07:14:00;;;;;;;1.33;1.27;;;;;;;;;;4136741;34;20091;-67
2022/05/08 07:16:26;;;;;;;6.55;1.98;;;;;;;;;;4137047;34;20115;-68
2022/05/08 07:18:52;;;;;;;6.53;1.80;;;;;;;;;;4136799;34;20546;-67
2022/05/08 07:21:19;;;;;;;1.70;1.60;;;;;;;;;;4136815;34;20127;-66
2022/05/08 07:23:46;;;;;;;10.80;2.80;;;;;;;;;;4124585;34;20108;-67
2022/05/08 07:26:12;;;;;;;1.00;1.00;;;;;;;;;;4134978;34;20135;-69
2022/05/08 07:28:38;;;;;;;1.83;1.67;;;;;;;;;;4136709;34;20620;-69
2022/05/08 07:31:05;;;;;;;2.45;1.67;;;;;;;;;;4124780;34;20216;-70
2022/05/08 07:33:34;;;;;;;3.78;2.17;;;;;;;;;;4136970;34;20119;-70
2022/05/08 07:36:13;;;;;;;1.73;1.40;;;;;;;;;;4125306;34;20103;-69
2022/05/08 07:38:48;;;;;;;1.50;1.40;;;;;;;;;;4136645;34;20126;-69
2022/05/08 07:41:16;;;;;;;1.20;1.20;;;;;;;;;;4137288;34;20530;-67
2022/05/08 07:43:45;;;;;;;1.35;1.20;;;;;;;;;;4136910;34;20139;-69
2022/05/08 07:46:12;;;;;;;1.35;1.25;;;;;;;;;;4137495;34;20560;-67
2022/05/08 07:48:38;;;;;;;2.87;1.67;;;;;;;;;;4137073;34;20142;-67
2022/05/08 07:51:05;;;;;;;1.27;1.15;;;;;;;;;;4136950;34;20122;-69
2022/05/08 07:53:31;;;;;;;4.40;1.30;;;;;;;;;;4135845;34;20139;-70
2022/05/08 07:55:58;;;;;;;3.58;1.73;;;;;;;;;;4136764;34;20464;-68
2022/05/08 07:58:31;;;;;;;0.90;0.90;;;;;;;;;;4136708;34;20223;-66
2022/05/08 08:00:57;;;;;;;6.32;1.80;;;;;;;;;;4136792;34;20134;-67
2022/05/08 08:03:28;;;;;;;2.25;1.55;;;;;;;;;;4134344;34;20127;-69
2022/05/08 08:05:55;;;;;;;5.75;1.77;;;;;;;;;;4132456;34;20123;-68
2022/05/08 08:08:23;;;;;;;2.45;1.48;;;;;;;;;;4132615;34;20126;-67
2022/05/08 08:10:52;;;;;;;1.15;1.15;;;;;;;;;;4132295;34;20119;-68
2022/05/08 08:13:21;;;;;;;1.42;1.33;;;;;;;;;;4133177;34;20138;-65
2022/05/08 08:15:48;;;;;;;1.75;1.60;;;;;;;;;;4132270;34;20157;-67
2022/05/08 08:18:15;;;;;;;1.02;1.00;;;;;;;;;;4133318;34;20123;-70
2022/05/08 08:20:42;;;;;;;1.62;1.52;;;;;;;;;;4120828;34;20547;-66
2022/05/08 08:23:08;;;;;;;4.87;1.80;;;;;;;;;;4120816;34;20131;-64
2022/05/08 08:25:34;;;;;;;2.12;1.83;;;;;;;;;;4133514;34;20239;-66
2022/05/08 08:28:01;;;;;;;2.87;1.58;;;;;;;;;;4133042;34;20110;-64
2022/05/08 08:30:28;;;;;;;1.10;1.10;;;;;;;;;;4120989;34;20111;-66
2022/05/08 08:32:54;;;;;;;2.17;1.50;;;;;;;;;;4121142;34;20528;-67
2022/05/08 08:35:20;;;;;;;1.65;1.50;;;;;;;;;;4135467;34;20222;-67
2022/05/08 08:37:46;;;;;;;2.28;1.60;;;;;;;;;;4128842;34;20127;-69
2022/05/08 08:40:12;;;;;;;1.20;1.20;;;;;;;;;;4130383;34;20115;-67
2022/05/08 08:42:43;;;;;;;1.45;1.30;;;;;;;;;;4119493;34;20704;-67
2022/05/08 08:47:58;;;;;;;1.75;1.45;;;;;;;;;;4135874;34;20103;-67
2022/05/08 08:50:26;;;;;;;4.00;2.75;;;;;;;;;;4135281;34;20451;-68
2022/05/08 08:53:04;;;;;;;3.97;2.12;;;;;;;;;;4136122;34;20617;-68
2022/05/08 08:55:31;;;;;;;1.80;1.58;;;;;;;;;;4136131;34;20096;-70
2022/05/08 08:57:57;;;;;;;3.10;1.48;;;;;;;;;;4111217;34;20216;-68
2022/05/08 09:00:23;;;;;;;1.30;1.20;;;;;;;;;;4136172;34;20480;-69
2022/05/08 09:02:55;;;;;;;2.35;1.85;;;;;;;;;;4135967;34;20119;-68
2022/05/08 09:05:24;;;;;;;3.05;2.42;;;;;;;;;;4124173;34;20119;-68
2022/05/08 09:07:52;;;;;;;1.40;1.30;;;;;;;;;;4136022;34;20733;-68
2022/05/08 09:10:20;;;;;;;0.90;0.90;;;;;;;;;;4136135;34;20102;-65
2022/05/08 09:12:52;;;;;;;2.17;1.98;;;;;;;;;;4134473;34;20111;-66
2022/05/08 09:15:22;;;;;;;0.82;0.82;;;;;;;;;;4136187;34;20291;-66
2022/05/08 09:17:49;;;;;;;2.17;1.60;;;;;;;;;;4135877;34;20234;-68
2022/05/08 09:20:34;;;;;;;1.10;1.10;;;;;;;;;;4135924;34;20107;-68
2022/05/08 09:23:09;;;;;;;1.00;1.00;;;;;;;;;;4135880;34;20121;-68
2022/05/08 09:25:52;;;;;;;1.80;1.60;;;;;;;;;;4136124;34;20198;-68
2022/05/08 09:28:24;;;;;;;1.65;1.55;;;;;;;;;;4135820;34;20570;-68
2022/05/08 09:30:54;;;;;;;3.90;1.80;;;;;;;;;;4135851;34;20146;-69
2022/05/08 09:33:35;;;;;;;5.43;2.12;;;;;;;;;;4135751;34;20179;-69
2022/05/08 09:36:04;;;;;;;3.58;1.90;;;;;;;;;;4123231;34;20543;-69
2022/05/08 09:38:50;;;;;;;2.05;1.58;;;;;;;;;;4135843;34;20103;-69
2022/05/08 09:41:20;;;;;;;1.73;1.55;;;;;;;;;;4135897;34;20104;-68
2022/05/08 09:43:46;;;;;;;1.98;1.58;;;;;;;;;;4135927;34;20096;-69
2022/05/08 09:46:12;;;;;;;3.20;1.83;;;;;;;;;;4123123;34;20107;-67
2022/05/08 09:48:39;;;;;;;2.33;1.70;;;;;;;;;;4135498;34;20142;-73
2022/05/08 09:51:07;;;;;;;1.00;1.00;;;;;;;;;;4135608;34;20088;-71
2022/05/08 09:53:34;;;;;;;2.35;2.15;;;;;;;;;;4135554;34;20107;-70
2022/05/08 09:56:04;;;;;;;1.52;1.42;;;;;;;;;;4135776;34;20141;-71
2022/05/08 09:58:31;;;;;;;2.80;1.70;;;;;;;;;;4135633;34;20219;-69
2022/05/08 10:00:57;;;;;;;1.10;1.10;;;;;;;;;;4135961;34;20111;-69
2022/05/08 10:03:24;;;;;;;1.42;1.33;;;;;;;;;;4136404;34;20135;-69
2022/05/08 10:05:50;;;;;;;1.52;1.42;;;;;;;;;;4137523;34;20106;-70
2022/05/08 10:08:20;;;;;;;2.12;1.50;;;;;;;;;;4137592;34;20682;-69
2022/05/08 10:13:54;;;;;;;1.55;1.45;;;;;;;;;;4137495;34;20232;-70
2022/05/08 10:16:48;;;;;;;1.90;1.50;;;;;;;;;;4137441;34;20186;-68
2022/05/08 10:19:17;;;;;;;1.00;1.00;;;;;;;;;;4137535;34;20182;-65
2022/05/08 10:21:52;;;;;;;1.20;1.20;;;;;;;;;;4137234;34;20216;-73
2022/05/08 10:24:51;;;;;;;1.40;1.30;;;;;;;;;;4137528;34;20142;-76
2022/05/08 10:27:28;;;;;;;1.87;1.62;;;;;;;;;;4137041;34;20591;-73
2022/05/08 10:29:54;;;;;;;1.02;1.02;;;;;;;;;;4136165;34;20190;-74
2022/05/08 10:32:31;;;;;;;1.92;1.65;;;;;;;;;;4137433;34;20115;-71
2022/05/08 10:35:03;;;;;;;6.95;3.22;;;;;;;;;;4137293;34;20114;-71
2022/05/08 10:37:30;;;;;;;2.17;1.80;;;;;;;;;;4138090;34;20108;-72
2022/05/08 10:39:57;;;;;;;4.57;2.17;;;;;;;;;;4138277;34;20186;-72
2022/05/08 10:42:50;;;;;;;1.83;1.40;;;;;;;;;;4137720;34;20120;-73
2022/05/08 10:45:33;;;;;;;1.55;1.45;;;;;;;;;;4137388;34;20124;-69
2022/05/08 10:48:01;;;;;;;1.33;1.23;;;;;;;;;;4137544;34;20200;-66
2022/05/08 10:50:27;;;;;;;4.65;1.90;;;;;;;;;;4137328;34;20123;-70
2022/05/08 10:52:53;;;;;;;3.15;2.28;;;;;;;;;;4137048;34;20110;-68
2022/05/08 10:55:19;;;;;;;2.50;1.60;;;;;;;;;;4124755;34;20112;-69
2022/05/08 10:57:47;;;;;;;4.22;1.50;;;;;;;;;;4137126;34;20184;-69
2022/05/08 11:00:27;;;;;;;1.50;1.40;;;;;;;;;;4124648;34;20540;-70
2022/05/08 11:02:58;;;;;;;5.35;2.33;;;;;;;;;;4136908;34;20107;-69
2022/05/08 11:05:34;;;;;;;6.28;2.37;;;;;;;;;;4137207;34;20116;-70
2022/05/08 11:08:11;;;;;;;6.62;2.40;;;;;;;;;;4135543;34;20130;-68
2022/05/08 11:10:38;;;;;;;2.10;1.90;;;;;;;;;;4137135;34;20111;-69
2022/05/08 11:13:05;;;;;;;1.37;1.27;;;;;;;;;;4136311;34;20122;-69
2022/05/08 11:15:43;;;;;;;1.62;1.52;;;;;;;;;;4135606;34;20188;-70
2022/05/08 11:18:15;;;;;;;1.77;1.58;;;;;;;;;;4137243;34;20131;-70
2022/05/08 11:21:00;;;;;;;6.00;2.83;;;;;;;;;;4136996;34;20103;-70
2022/05/08 11:23:28;;;;;;;1.92;1.60;;;;;;;;;;4135850;34;20122;-69
2022/05/08 11:25:55;;;;;;;1.60;1.50;;;;;;;;;;4124400;34;20130;-70
2022/05/08 11:28:22;;;;;;;1.70;1.30;;;;;;;;;;4136158;34;20119;-68
2022/05/08 11:30:50;;;;;;;2.75;1.77;;;;;;;;;;4136836;34;20552;-67
2022/05/08 11:36:07;;;;;;;4.75;1.92;;;;;;;;;;4124345;34;20113;-67
2022/05/08 11:38:53;;;;;;;6.03;2.12;;;;;;;;;;4136961;34;20128;-70
2022/05/08 11:41:22;;;;;;;3.95;2.47;;;;;;;;;;4137424;34;20134;-74
2022/05/08 11:43:47;;;;;;;8.07;2.37;;;;;;;;;;4125788;34;20127;-72
2022/05/08 11:46:15;;;;;;;2.70;2.12;;;;;;;;;;4137378;34;20133;-71
2022/05/08 11:48:47;;;;;;;2.85;1.70;;;;;;;;;;4136805;34;20563;-71
2022/05/08 11:51:15;;;;;;;1.10;1.08;;;;;;;;;;4124371;34;20547;-71
2022/05/08 11:53:49;;;;;;;4.05;2.55;;;;;;;;;;4136628;34;20105;-67
2022/05/08 11:56:26;;;;;;;2.43;1.93;;;;;;;;;;4137033;34;20112;-67
2022/05/08 11:58:57;;;;;;;3.33;2.37;;;;;;;;;;4136695;34;20191;-67
2022/05/08 12:01:33;;;;;;;1.45;1.35;;;;;;;;;;4124103;34;20566;-68
2022/05/08 12:04:28;;;;;;;1.10;1.10;;;;;;;;;;4135109;34;20111;-67
2022/05/08 12:07:07;;;;;;;2.25;1.73;;;;;;;;;;4136504;34;20110;-67
2022/05/08 12:09:34;;;;;;;3.67;2.62;;;;;;;;;;4123922;34;20139;-69
2022/05/08 12:12:26;;;;;;;1.12;1.10;;;;;;;;;;4136439;34;20174;-67
2022/05/08 12:14:53;;;;;;;1.27;1.20;;;;;;;;;;4136715;34;20198;-67
2022/05/08 12:17:20;;;;;;;1.00;1.00;;;;;;;;;;4136431;34;20131;-66
2022/05/08 12:19:53;;;;;;;4.15;2.08;;;;;;;;;;4124083;34;20115;-66
2022/05/08 12:22:25;;;;;;;2.00;1.83;;;;;;;;;;4136431;34;20610;-72
2022/05/08 12:24:55;;;;;;;1.98;1.30;;;;;;;;;;4136358;34;20107;-67
2022/05/08 12:27:21;;;;;;;1.37;1.00;;;;;;;;;;4124151;34;20530;-67
2022/05/08 12:29:48;;;;;;;1.02;1.02;;;;;;;;;;4123994;34;20102;-67
2022/05/08 12:32:17;;;;;;;2.40;1.35;;;;;;;;;;4136073;34;20452;-68
2022/05/08 12:34:43;;;;;;;1.15;1.12;;;;;;;;;;4136296;34;20514;-67
2022/05/08 12:37:11;;;;;;;3.47;2.12;;;;;;;;;;4123779;34;20650;-64
2022/05/08 12:39:38;;;;;;;4.50;2.53;;;;;;;;;;4136357;34;20110;-66
2022/05/08 12:42:05;;;;;;;3.15;2.50;;;;;;;;;;4136274;34;20123;-67
2022/05/08 12:44:31;;;;;;;1.17;1.17;;;;;;;;;;4136361;34;20122;-71
2022/05/08 12:46:58;;;;;;;2.47;1.62;;;;;;;;;;4134935;34;20468;-69
2022/05/08 12:49:24;;;;;;;3.20;1.67;;;;;;;;;;4136343;34;20104;-68
2022/05/08 12:51:50;;;;;;;5.15;2.75;;;;;;;;;;4136007;34;20142;-67
2022/05/08 12:54:16;;;;;;;4.15;2.03;;;;;;;;;;4136170;34;20123;-64
2022/05/08 12:56:44;;;;;;;3.00;2.30;;;;;;;;;;4136291;34;20103;-69
2022/05/08 13:01:55;;;;;;;1.33;1.25;;;;;;;;;;4134434;34;20107;-71
2022/05/08 13:04:22;;;;;;;1.42;1.33;;;;;;;;;;4135264;34;20120;-70
2022/05/08 13:06:48;;;;;;;1.00;1.00;;;;;;;;;;4135009;34;20127;-70
2022/05/08 13:09:14;;;;;;;1.17;1.12;;;;;;;;;;4135218;34;20200;-70
2022/05/08 13:11:41;;;;;;;5.15;2.72;;;;;;;;;;4135125;34;20183;-70
2022/05/08 13:14:07;;;;;;;5.75;2.72;;;;;;;;;;4134648;34;20570;-70
2022/05/08 13:16:33;;;;;;;2.15;1.70;;;;;;;;;;4123841;34;20106;-70
2022/05/08 13:18:59;;;;;;;2.65;1.98;;;;;;;;;;4136332;34;20099;-71
2022/05/08 13:21:26;;;;;;;0.82;0.82;;;;;;;;;;4136090;34;20114;-71
2022/05/08 13:23:52;;;;;;;1.37;1.27;;;;;;;;;;4136000;34;20111;-71
2022/05/08 13:26:18;;;;;;;0.82;0.82;;;;;;;;;;4136293;34;20119;-70
2022/05/08 13:28:44;;;;;;;1.00;1.00;;;;;;;;;;4136006;34;20506;-70
2022/05/08 13:31:12;;;;;;;2.83;2.40;;;;;;;;;;4135998;34;20118;-70
2022/05/08 13:33:38;;;;;;;1.30;1.20;;;;;;;;;;4135517;34;20527;-70
2022/05/08 13:36:04;;;;;;;4.00;2.25;;;;;;;;;;4136780;34;20594;-70
2022/05/08 13:38:30;;;;;;;6.43;2.00;;;;;;;;;;4137890;34;20223;-70
2022/05/08 13:40:59;;;;;;;8.48;2.40;;;;;;;;;;4125355;34;20417;-70
2022/05/08 13:43:26;;;;;;;3.83;2.25;;;;;;;;;;4137787;34;20492;-70
2022/05/08 13:45:52;;;;;;;7.80;2.92;;;;;;;;;;4125350;34;20527;-69
2022/05/08 13:48:19;;;;;;;1.55;1.40;;;;;;;;;;4137627;34;20106;-70
2022/05/08 13:50:47;;;;;;;4.53;2.08;;;;;;;;;;4138053;34;20151;-70
2022/05/08 13:53:14;;;;;;;2.65;1.52;;;;;;;;;;4137746;34;20565;-70
2022/05/08 13:55:43;;;;;;;5.72;2.33;;;;;;;;;;4125367;34;20126;-70
2022/05/08 13:58:10;;;;;;;4.05;2.00;;;;;;;;;;4136675;34;20550;-71
2022/05/08 14:00:38;;;;;;;6.20;1.95;;;;;;;;;;4137863;34;20211;-70
2022/05/08 14:03:09;;;;;;;4.32;2.40;;;;;;;;;;4136790;34;20104;-70
2022/05/08 14:05:36;;;;;;;5.60;3.12;;;;;;;;;;4137856;34;20211;-71
2022/05/08 14:08:03;;;;;;;6.80;2.20;;;;;;;;;;4137525;34;20655;-70
2022/05/08 14:10:30;;;;;;;2.55;2.22;;;;;;;;;;4137551;34;20531;-71
2022/05/08 14:12:56;;;;;;;9.13;4.15;;;;;;;;;;4125104;34;20123;-70
2022/05/08 14:15:23;;;;;;;5.25;3.12;;;;;;;;;;4137828;34;20520;-69
2022/05/08 14:17:53;;;;;;;5.28;2.55;;;;;;;;;;4137442;34;20224;-71
2022/05/08 14:20:19;;;;;;;5.20;3.22;;;;;;;;;;4137552;34;20107;-71
2022/05/08 14:22:45;;;;;;;4.28;2.55;;;;;;;;;;4135767;34;20204;-70
2022/05/08 14:25:12;;;;;;;2.83;1.77;;;;;;;;;;4137154;34;20100;-71
2022/05/08 14:27:39;;;;;;;3.65;2.62;;;;;;;;;;4137184;34;20543;-71
2022/05/08 14:30:09;;;;;;;5.25;3.12;;;;;;;;;;4137519;34;20216;-72
2022/05/08 14:38:06;;;;;;;5.68;3.17;;;;;;;;;;4136403;34;20111;-71
2022/05/08 14:40:33;;;;;;;3.47;2.22;;;;;;;;;;4137375;34;20561;-70
2022/05/08 14:42:59;;;;;;;6.87;4.28;;;;;;;;;;4124951;34;20117;-69
2022/05/08 14:45:28;;;;;;;3.90;2.87;;;;;;;;;;4124793;34;20114;-69
2022/05/08 14:47:57;;;;;;;4.85;2.47;;;;;;;;;;4123970;34;20102;-69
2022/05/08 14:50:24;;;;;;;3.17;2.53;;;;;;;;;;4137277;34;20449;-69
2022/05/08 14:52:50;;;;;;;4.87;3.12;;;;;;;;;;4135731;34;20119;-69
2022/05/08 14:55:16;;;;;;;7.82;4.45;;;;;;;;;;4137460;34;20523;-69
2022/05/08 14:57:42;;;;;;;11.02;4.03;;;;;;;;;;4137007;34;20130;-69
2022/05/08 15:00:08;;;;;;;7.75;3.42;;;;;;;;;;4137222;34;20119;-69
2022/05/08 15:02:35;;;;;;;3.28;2.33;;;;;;;;;;4137065;34;20115;-70
2022/05/08 15:05:01;;;;;;;6.03;2.65;;;;;;;;;;4136005;34;20224;-70
2022/05/08 15:07:27;;;;;;;8.75;2.50;;;;;;;;;;4137256;34;20208;-70
2022/05/08 15:09:53;;;;;;;5.32;1.95;;;;;;;;;;4124807;34;20133;-70
2022/05/08 15:12:19;;;;;;;4.10;2.47;;;;;;;;;;4136952;34;20562;-70
2022/05/08 15:14:45;;;;;;;8.10;2.95;;;;;;;;;;4137120;34;20111;-69
2022/05/08 15:17:12;;;;;;;13.85;5.10;;;;;;;;;;4136956;34;20122;-69
2022/05/08 15:19:38;;;;;;;4.10;2.47;;;;;;;;;;4137158;34;20107;-69
2022/05/08 15:22:05;;;;;;;4.62;2.50;;;;;;;;;;4136915;34;20510;-70
2022/05/08 15:24:31;;;;;;;4.57;2.83;;;;;;;;;;4124629;34;20103;-70
2022/05/08 15:26:57;;;;;;;5.25;2.80;;;;;;;;;;4135525;34;20116;-70
2022/05/08 15:29:23;;;;;;;3.67;2.60;;;;;;;;;;4124587;34;20127;-69
2022/05/08 15:31:50;;;;;;;6.32;2.45;;;;;;;;;;4136897;34;20684;-69
2022/05/08 15:34:16;;;;;;;6.18;2.50;;;;;;;;;;4137043;34;20091;-69
2022/05/08 15:36:42;;;;;;;6.07;2.08;;;;;;;;;;4136883;34;20099;-68
2022/05/08 15:39:09;;;;;;;6.05;2.15;;;;;;;;;;4124601;34;20138;-69
2022/05/08 15:41:37;;;;;;;6.70;2.50;;;;;;;;;;4135534;34;20117;-69
2022/05/08 15:44:03;;;;;;;9.55;2.95;;;;;;;;;;4136803;34;20468;-69
2022/05/08 15:46:29;;;;;;;3.35;2.17;;;;;;;;;;4135107;34;20203;-70